createdAt,value
2019-02-15T00:00:35.757Z,102755.98
2019-02-15T00:03:06.763Z,102746.92
2019-02-15T00:05:36.098Z,102743.95
2019-02-15T00:08:05.465Z,102741.92
2019-02-15T00:10:34.799Z,102742.02
2019-02-15T00:13:13.055Z,102734.31
2019-02-15T00:15:35.206Z,102733.94
2019-02-15T00:18:22.416Z,102730.50
2019-02-15T00:20:59.514Z,102731.86
2019-02-15T00:23:28.878Z,102728.91
2019-02-15T00:25:58.213Z,102733.30
2019-02-15T00:28:27.578Z,102732.50
2019-02-15T00:30:56.922Z,102736.04
2019-02-15T00:33:26.327Z,102738.22
2019-02-15T00:35:56.111Z,102734.44
2019-02-15T00:38:25.476Z,102733.17
2019-02-15T00:40:54.817Z,102734.87
2019-02-15T00:43:24.179Z,102729.28
2019-02-15T00:45:57.532Z,102737.49
2019-02-15T00:48:28.461Z,102740.06
2019-02-15T00:51:02.469Z,102738.36
2019-02-15T00:53:33.471Z,102735.80
2019-02-15T00:56:13.518Z,102732.37
2019-02-15T00:58:47.473Z,102733.23
2019-02-15T01:01:18.441Z,102730.66
2019-02-15T01:03:52.417Z,102727.67
2019-02-15T01:06:38.394Z,102723.83
2019-02-15T01:09:09.397Z,102727.31
2019-02-15T01:11:46.326Z,102728.26
2019-02-15T01:14:15.693Z,102725.70
2019-02-15T01:16:45.018Z,102729.16
2019-02-15T01:19:14.397Z,102721.89
2019-02-15T01:21:43.732Z,102716.31
2019-02-15T01:24:13.101Z,102717.20
2019-02-15T01:26:44.103Z,102707.67
2019-02-15T01:29:24.115Z,102706.84
2019-02-15T01:32:06.786Z,102700.80
2019-02-15T01:34:54.160Z,102694.30
2019-02-15T01:37:25.133Z,102696.89
2019-02-15T01:40:12.902Z,102698.59
2019-02-15T01:42:43.878Z,102693.38
2019-02-15T01:45:24.172Z,102686.49
2019-02-15T01:47:53.500Z,102689.10
2019-02-15T01:50:22.870Z,102691.77
2019-02-15T01:52:52.206Z,102686.22
2019-02-15T01:55:21.963Z,102691.42
2019-02-15T01:57:51.324Z,102692.75
2019-02-15T02:00:22.587Z,102681.97
2019-02-15T02:02:52.296Z,102682.83
2019-02-15T02:05:21.933Z,102675.08
2019-02-15T02:07:51.310Z,102672.48
2019-02-15T02:10:20.643Z,102671.66
2019-02-15T02:12:50.174Z,102673.83
2019-02-15T02:15:19.580Z,102677.75
2019-02-15T02:17:49.293Z,102676.85
2019-02-15T02:20:18.626Z,102677.30
2019-02-15T02:22:47.994Z,102664.80
2019-02-15T02:25:17.328Z,102667.37
2019-02-15T02:27:46.684Z,102658.80
2019-02-15T02:30:16.023Z,102665.67
2019-02-15T02:32:45.383Z,102663.09
2019-02-15T02:35:14.717Z,102658.80
2019-02-15T02:37:44.084Z,102652.75
2019-02-15T02:40:13.427Z,102656.66
2019-02-15T02:42:42.787Z,102651.06
2019-02-15T02:45:12.127Z,102646.75
2019-02-15T02:47:41.504Z,102651.94
2019-02-15T02:50:10.834Z,102644.63
2019-02-15T02:52:40.199Z,102644.63
2019-02-15T02:55:09.536Z,102642.47
2019-02-15T02:57:38.909Z,102638.61
2019-02-15T03:00:08.750Z,102637.30
2019-02-15T03:02:38.116Z,102635.14
2019-02-15T03:05:07.446Z,102641.61
2019-02-15T03:07:36.816Z,102641.20
2019-02-15T03:10:06.883Z,102641.62
2019-02-15T03:12:36.250Z,102641.20
2019-02-15T03:15:06.121Z,102649.38
2019-02-15T03:17:35.487Z,102638.61
2019-02-15T03:20:06.363Z,102646.34
2019-02-15T03:22:35.742Z,102641.20
2019-02-15T03:25:05.090Z,102647.21
2019-02-15T03:27:34.446Z,102646.78
2019-02-15T03:30:04.656Z,102648.92
2019-02-15T03:32:34.019Z,102645.91
2019-02-15T03:35:03.945Z,102647.20
2019-02-15T03:37:51.365Z,102655.39
2019-02-15T03:40:25.037Z,102663.98
2019-02-15T03:42:54.450Z,102658.81
2019-02-15T03:45:24.380Z,102660.55
2019-02-15T03:47:54.301Z,102654.93
2019-02-15T03:50:23.729Z,102649.77
2019-02-15T03:52:53.084Z,102648.03
2019-02-15T03:55:22.567Z,102644.16
2019-02-15T03:57:52.080Z,102653.20
2019-02-15T04:00:21.448Z,102662.23
2019-02-15T04:02:50.781Z,102657.49
2019-02-15T04:05:20.142Z,102657.05
2019-02-15T04:07:49.486Z,102663.92
2019-02-15T04:10:18.929Z,102656.62
2019-02-15T04:12:48.270Z,102664.75
2019-02-15T04:15:17.653Z,102664.75
2019-02-15T04:17:46.987Z,102665.17
2019-02-15T04:20:16.345Z,102667.77
2019-02-15T04:22:45.684Z,102677.70
2019-02-15T04:25:15.051Z,102670.86
2019-02-15T04:27:44.380Z,102671.28
2019-02-15T04:30:13.814Z,102669.98
2019-02-15T04:32:43.151Z,102662.66
2019-02-15T04:35:12.522Z,102664.80
2019-02-15T04:37:41.855Z,102657.02
2019-02-15T04:40:11.214Z,102659.16
2019-02-15T04:42:40.579Z,102663.44
2019-02-15T04:45:09.958Z,102661.33
2019-02-15T04:47:39.293Z,102660.48
2019-02-15T04:50:09.192Z,102666.06
2019-02-15T04:52:38.532Z,102657.89
2019-02-15T04:55:07.896Z,102653.57
2019-02-15T04:57:37.240Z,102650.45
2019-02-15T05:00:08.453Z,102648.30
2019-02-15T05:02:37.793Z,102644.42
2019-02-15T05:05:07.735Z,102647.88
2019-02-15T05:07:37.065Z,102641.88
2019-02-15T05:10:06.448Z,102642.73
2019-02-15T05:12:35.795Z,102638.42
2019-02-15T05:15:07.302Z,102641.88
2019-02-15T05:17:36.707Z,102646.17
2019-02-15T05:20:07.829Z,102643.98
2019-02-15T05:22:37.164Z,102643.92
2019-02-15T05:25:06.548Z,102646.48
2019-02-15T05:27:35.882Z,102646.42
2019-02-15T05:30:06.996Z,102642.56
2019-02-15T05:32:36.341Z,102641.67
2019-02-15T05:35:06.088Z,102642.14
2019-02-15T05:37:35.425Z,102650.28
2019-02-15T05:40:05.830Z,102652.87
2019-02-15T05:42:35.199Z,102648.14
2019-02-15T05:45:05.410Z,102645.11
2019-02-15T05:47:34.735Z,102639.91
2019-02-15T05:50:04.749Z,102646.38
2019-02-15T05:52:34.082Z,102648.10
2019-02-15T05:55:03.801Z,102645.11
2019-02-15T05:57:33.135Z,102633.91
2019-02-15T06:00:02.545Z,102632.60
2019-02-15T06:02:31.917Z,102634.33
2019-02-15T06:05:01.371Z,102627.91
2019-02-15T06:07:32.409Z,102635.20
2019-02-15T06:10:01.821Z,102626.16
2019-02-15T06:12:31.159Z,102628.73
2019-02-15T06:15:00.677Z,102627.84
2019-02-15T06:17:30.685Z,102632.17
2019-02-15T06:20:03.950Z,102634.80
2019-02-15T06:22:36.927Z,102628.38
2019-02-15T06:25:07.876Z,102634.00
2019-02-15T06:27:37.193Z,102643.87
2019-02-15T06:30:08.280Z,102646.94
2019-02-15T06:32:37.782Z,102645.66
2019-02-15T06:35:07.317Z,102646.10
2019-02-15T06:37:36.683Z,102645.22
2019-02-15T06:40:06.450Z,102656.83
2019-02-15T06:42:35.816Z,102664.98
2019-02-15T06:45:06.294Z,102661.16
2019-02-15T06:47:35.665Z,102654.28
2019-02-15T06:50:06.854Z,102649.98
2019-02-15T06:52:36.226Z,102652.13
2019-02-15T06:55:06.502Z,102662.91
2019-02-15T06:57:35.868Z,102658.17
2019-02-15T07:00:12.858Z,102671.52
2019-02-15T07:02:46.676Z,102664.70
2019-02-15T07:05:28.083Z,102669.02
2019-02-15T07:07:57.520Z,102667.34
2019-02-15T07:10:26.866Z,102664.74
2019-02-15T07:12:56.245Z,102666.47
2019-02-15T07:15:33.398Z,102666.02
2019-02-15T07:17:56.646Z,102663.04
2019-02-15T07:20:26.029Z,102656.16
2019-02-15T07:22:55.394Z,102662.19
2019-02-15T07:25:25.160Z,102658.78
2019-02-15T07:27:54.530Z,102658.77
2019-02-15T07:30:23.866Z,102661.39
2019-02-15T07:32:53.793Z,102669.14
2019-02-15T07:35:23.148Z,102679.08
2019-02-15T07:37:52.624Z,102676.51
2019-02-15T07:40:22.542Z,102680.80
2019-02-15T07:42:51.910Z,102683.39
2019-02-15T07:45:22.652Z,102681.67
2019-02-15T07:47:52.198Z,102680.81
2019-02-15T07:50:21.528Z,102678.67
2019-02-15T07:52:51.705Z,102678.64
2019-02-15T07:55:21.032Z,102674.75
2019-02-15T07:57:50.796Z,102667.41
2019-02-15T08:00:20.130Z,102666.56
2019-02-15T08:02:50.045Z,102672.56
2019-02-15T08:05:19.384Z,102667.77
2019-02-15T08:07:48.795Z,102662.12
2019-02-15T08:10:18.209Z,102665.95
2019-02-15T08:12:47.628Z,102670.19
2019-02-15T08:15:16.982Z,102675.06
2019-02-15T08:17:46.467Z,102672.09
2019-02-15T08:20:15.866Z,102656.72
2019-02-15T08:22:45.244Z,102658.77
2019-02-15T08:25:19.055Z,102663.93
2019-02-15T08:27:53.099Z,102664.23
2019-02-15T08:30:22.609Z,102665.69
2019-02-15T08:32:52.036Z,102661.25
2019-02-15T08:35:21.372Z,102659.94
2019-02-15T08:37:50.741Z,102645.26
2019-02-15T08:40:20.079Z,102648.67
2019-02-15T08:42:49.893Z,102655.81
2019-02-15T08:45:20.028Z,102652.53
2019-02-15T08:47:49.405Z,102647.98
2019-02-15T08:50:20.256Z,102652.09
2019-02-15T08:52:49.621Z,102646.80
2019-02-15T08:55:18.949Z,102644.77
2019-02-15T08:57:48.329Z,102649.30
2019-02-15T09:00:17.664Z,102647.30
2019-02-15T09:02:48.218Z,102646.98
2019-02-15T09:05:17.549Z,102648.66
2019-02-15T09:07:46.913Z,102639.03
2019-02-15T09:10:16.285Z,102638.84
2019-02-15T09:12:45.628Z,102639.80
2019-02-15T09:15:17.989Z,102636.34
2019-02-15T09:17:47.342Z,102630.81
2019-02-15T09:20:16.890Z,102639.11
2019-02-15T09:22:46.236Z,102643.43
2019-02-15T09:25:15.607Z,102636.67
2019-02-15T09:27:46.583Z,102647.45
2019-02-15T09:30:15.955Z,102656.03
2019-02-15T09:32:45.287Z,102652.61
2019-02-15T09:35:14.656Z,102652.80
2019-02-15T09:37:43.996Z,102659.15
2019-02-15T09:40:13.377Z,102662.53
2019-02-15T09:42:42.720Z,102668.19
2019-02-15T09:45:12.537Z,102672.73
2019-02-15T09:47:41.871Z,102675.55
2019-02-15T09:50:12.219Z,102681.68
2019-02-15T09:52:41.822Z,102688.06
2019-02-15T09:55:11.186Z,102687.95
2019-02-15T09:57:40.525Z,102681.95
2019-02-15T10:00:10.741Z,102680.41
2019-02-15T10:02:40.066Z,102675.14
2019-02-15T10:05:10.878Z,102681.17
2019-02-15T10:07:40.218Z,102683.39
2019-02-15T10:10:10.235Z,102686.10
2019-02-15T10:12:39.576Z,102692.27
2019-02-15T10:15:11.238Z,102689.31
2019-02-15T10:17:40.571Z,102686.41
2019-02-15T10:20:09.941Z,102689.11
2019-02-15T10:22:39.272Z,102689.23
2019-02-15T10:25:09.382Z,102684.70
2019-02-15T10:27:38.729Z,102685.56
2019-02-15T10:30:10.540Z,102684.95
2019-02-15T10:32:39.909Z,102689.48
2019-02-15T10:35:10.974Z,102691.66
2019-02-15T10:37:40.320Z,102682.45
2019-02-15T10:40:11.640Z,102682.86
2019-02-15T10:42:40.972Z,102687.15
2019-02-15T10:45:15.112Z,102684.59
2019-02-15T10:47:44.495Z,102690.69
2019-02-15T10:50:13.863Z,102690.34
2019-02-15T10:52:43.199Z,102685.73
2019-02-15T10:55:12.581Z,102682.02
2019-02-15T10:57:41.911Z,102681.16
2019-02-15T11:00:21.766Z,102681.41
2019-02-15T11:02:51.169Z,102680.30
2019-02-15T11:05:20.939Z,102676.50
2019-02-15T11:07:50.281Z,102674.00
2019-02-15T11:10:19.978Z,102665.52
2019-02-15T11:12:49.322Z,102675.06
2019-02-15T11:15:18.781Z,102672.84
2019-02-15T11:17:48.187Z,102675.47
2019-02-15T11:20:17.790Z,102675.03
2019-02-15T11:22:47.158Z,102674.60
2019-02-15T11:25:16.565Z,102679.33
2019-02-15T11:27:45.959Z,102684.56
2019-02-15T11:30:16.135Z,102685.54
2019-02-15T11:32:45.517Z,102691.16
2019-02-15T11:35:17.660Z,102693.73
2019-02-15T11:37:47.441Z,102685.59
2019-02-15T11:40:16.785Z,102681.81
2019-02-15T11:42:46.184Z,102670.56
2019-02-15T11:45:16.090Z,102675.33
2019-02-15T11:47:45.473Z,102673.16
2019-02-15T11:50:15.588Z,102666.63
2019-02-15T11:52:44.962Z,102676.99
2019-02-15T11:55:14.298Z,102675.24
2019-02-15T11:57:43.675Z,102680.35
2019-02-15T12:00:18.414Z,102676.84
2019-02-15T12:02:48.087Z,102678.34
2019-02-15T12:05:17.413Z,102678.25
2019-02-15T12:07:46.762Z,102675.11
2019-02-15T12:10:16.098Z,102672.09
2019-02-15T12:12:45.480Z,102677.57
2019-02-15T12:15:14.813Z,102670.11
2019-02-15T12:17:44.176Z,102667.02
2019-02-15T12:20:14.782Z,102672.27
2019-02-15T12:22:44.108Z,102674.05
2019-02-15T12:25:13.475Z,102670.53
2019-02-15T12:27:42.814Z,102671.71
2019-02-15T12:30:14.277Z,102675.11
2019-02-15T12:32:43.623Z,102674.25
2019-02-15T12:35:12.993Z,102669.95
2019-02-15T12:37:42.320Z,102674.70
2019-02-15T12:40:12.059Z,102678.59
2019-02-15T12:42:41.561Z,102668.62
2019-02-15T12:45:12.983Z,102664.99
2019-02-15T12:47:42.315Z,102663.20
2019-02-15T12:50:16.865Z,102663.56
2019-02-15T12:52:46.198Z,102662.11
2019-02-15T12:55:15.563Z,102658.92
2019-02-15T12:57:44.891Z,102647.55
2019-02-15T13:00:15.491Z,102656.14
2019-02-15T13:02:44.847Z,102648.02
2019-02-15T13:05:14.708Z,102646.91
2019-02-15T13:07:44.116Z,102639.97
2019-02-15T13:10:15.197Z,102642.74
2019-02-15T13:12:44.531Z,102641.27
2019-02-15T13:15:13.960Z,102646.55
2019-02-15T13:17:43.320Z,102630.50
2019-02-15T13:20:12.701Z,102627.73
2019-02-15T13:22:42.054Z,102630.71
2019-02-15T13:25:11.433Z,102619.23
2019-02-15T13:27:40.765Z,102613.72
2019-02-15T13:30:12.075Z,102605.97
2019-02-15T13:32:41.686Z,102607.63
2019-02-15T13:35:13.858Z,102600.22
2019-02-15T13:37:43.195Z,102592.33
2019-02-15T13:40:12.590Z,102596.88
2019-02-15T13:42:41.968Z,102589.42
2019-02-15T13:45:12.543Z,102594.15
2019-02-15T13:47:41.934Z,102593.70
2019-02-15T13:50:13.272Z,102595.16
2019-02-15T13:52:42.651Z,102599.19
2019-02-15T13:55:11.993Z,102596.98
2019-02-15T13:57:41.367Z,102599.60
2019-02-15T14:00:12.542Z,102596.47
2019-02-15T14:02:41.917Z,102591.80
2019-02-15T14:05:12.080Z,102585.55
2019-02-15T14:07:41.483Z,102593.13
2019-02-15T14:10:14.498Z,102583.01
2019-02-15T14:12:43.891Z,102586.30
2019-02-15T14:15:13.290Z,102586.77
2019-02-15T14:17:46.330Z,102585.77
2019-02-15T14:20:16.639Z,102583.95
2019-02-15T14:22:46.021Z,102579.11
2019-02-15T14:25:15.372Z,102569.55
2019-02-15T14:27:44.746Z,102579.84
2019-02-15T14:30:14.532Z,102568.42
2019-02-15T14:32:43.898Z,102572.89
2019-02-15T14:35:14.065Z,102566.89
2019-02-15T14:37:43.445Z,102569.69
2019-02-15T14:40:16.199Z,102567.56
2019-02-15T14:42:45.562Z,102573.08
2019-02-15T14:45:14.974Z,102568.75
2019-02-15T14:47:53.912Z,102563.48
2019-02-15T14:50:15.373Z,102564.97
2019-02-15T14:52:44.756Z,102565.69
2019-02-15T14:55:14.086Z,102566.08
2019-02-15T14:57:43.459Z,102565.73
2019-02-15T15:00:13.636Z,102557.61
2019-02-15T15:02:43.003Z,102562.23
2019-02-15T15:05:15.288Z,102557.14
2019-02-15T15:07:44.658Z,102552.00
2019-02-15T15:10:14.008Z,102550.20
2019-02-15T15:12:43.373Z,102550.92
2019-02-15T15:15:14.618Z,102554.59
2019-02-15T15:17:44.000Z,102559.93
2019-02-15T15:20:13.611Z,102559.55
2019-02-15T15:22:42.989Z,102559.44
2019-02-15T15:25:13.470Z,102557.86
2019-02-15T15:27:42.844Z,102553.17
2019-02-15T15:30:15.886Z,102554.84
2019-02-15T15:32:45.252Z,102553.28
2019-02-15T15:35:14.587Z,102555.58
2019-02-15T15:37:43.957Z,102551.09
2019-02-15T15:40:14.533Z,102551.30
2019-02-15T15:42:43.902Z,102547.84
2019-02-15T15:45:13.346Z,102551.97
2019-02-15T15:47:42.742Z,102541.02
2019-02-15T15:50:12.428Z,102545.02
2019-02-15T15:52:41.791Z,102549.45
2019-02-15T15:55:12.177Z,102551.53
2019-02-15T15:57:41.554Z,102549.42
2019-02-15T16:00:15.459Z,102551.81
2019-02-15T16:02:44.823Z,102550.35
2019-02-15T16:05:14.162Z,102541.91
2019-02-15T16:07:43.955Z,102536.02
2019-02-15T16:10:14.291Z,102539.44
2019-02-15T16:12:43.654Z,102547.78
2019-02-15T16:15:13.645Z,102539.28
2019-02-15T16:17:43.018Z,102549.30
2019-02-15T16:20:13.105Z,102548.98
2019-02-15T16:22:42.497Z,102551.66
2019-02-15T16:25:11.826Z,102542.31
2019-02-15T16:27:43.411Z,102543.74
2019-02-15T16:30:15.767Z,102540.81
2019-02-15T16:32:45.131Z,102548.56
2019-02-15T16:35:14.486Z,102542.17
2019-02-15T16:37:43.871Z,102537.45
2019-02-15T16:40:15.204Z,102547.04
2019-02-15T16:42:44.585Z,102543.67
2019-02-15T16:45:16.830Z,102547.53
2019-02-15T16:47:46.189Z,102547.67
2019-02-15T16:50:15.526Z,102549.92
2019-02-15T16:52:44.987Z,102559.89
2019-02-15T16:55:14.366Z,102550.02
2019-02-15T16:57:43.697Z,102554.37
2019-02-15T17:00:13.584Z,102552.34
2019-02-15T17:02:42.973Z,102560.20
2019-02-15T17:05:12.622Z,102560.67
2019-02-15T17:07:41.947Z,102562.00
2019-02-15T17:10:11.487Z,102553.78
2019-02-15T17:12:40.820Z,102552.19
2019-02-15T17:15:16.149Z,102550.89
2019-02-15T17:17:45.558Z,102547.42
2019-02-15T17:20:14.919Z,102542.31
2019-02-15T17:22:44.302Z,102548.81
2019-02-15T17:25:13.633Z,102554.91
2019-02-15T17:27:42.974Z,102554.46
2019-02-15T17:30:12.511Z,102550.19
2019-02-15T17:32:41.853Z,102549.34
2019-02-15T17:35:11.676Z,102548.51
2019-02-15T17:37:41.001Z,102549.41
2019-02-15T17:40:16.831Z,102554.17
2019-02-15T17:42:46.169Z,102542.98
2019-02-15T17:45:15.547Z,102543.81
2019-02-15T17:47:44.878Z,102542.52
2019-02-15T17:50:14.252Z,102543.77
2019-02-15T17:52:43.587Z,102540.38
2019-02-15T17:55:14.044Z,102536.08
2019-02-15T17:57:43.416Z,102535.66
2019-02-15T18:00:13.729Z,102539.95
2019-02-15T18:02:43.078Z,102534.78
2019-02-15T18:05:18.220Z,102537.84
2019-02-15T18:07:49.655Z,102543.47
2019-02-15T18:10:19.023Z,102537.42
2019-02-15T18:12:48.652Z,102531.81
2019-02-15T18:15:18.005Z,102532.26
2019-02-15T18:17:47.341Z,102536.58
2019-02-15T18:20:17.759Z,102533.56
2019-02-15T18:22:47.103Z,102536.58
2019-02-15T18:25:16.472Z,102541.77
2019-02-15T18:27:45.815Z,102534.42
2019-02-15T18:30:16.336Z,102529.28
2019-02-15T18:32:45.680Z,102531.41
2019-02-15T18:35:15.071Z,102524.94
2019-02-15T18:37:44.395Z,102520.64
2019-02-15T18:40:13.779Z,102525.81
2019-02-15T18:42:43.117Z,102520.64
2019-02-15T18:45:14.227Z,102523.25
2019-02-15T18:47:43.565Z,102528.83
2019-02-15T18:50:12.931Z,102529.28
2019-02-15T18:52:42.289Z,102530.10
2019-02-15T18:55:11.990Z,102530.11
2019-02-15T18:57:41.334Z,102534.84
2019-02-15T19:00:15.925Z,102534.38
2019-02-15T19:02:49.608Z,102532.25
2019-02-15T19:05:18.978Z,102533.10
2019-02-15T19:07:48.314Z,102533.98
2019-02-15T19:10:22.683Z,102528.41
2019-02-15T19:12:52.200Z,102533.99
2019-02-15T19:15:21.960Z,102537.43
2019-02-15T19:17:51.298Z,102543.03
2019-02-15T19:20:20.702Z,102540.02
2019-02-15T19:22:50.030Z,102538.31
2019-02-15T19:25:20.533Z,102536.16
2019-02-15T19:27:49.868Z,102529.27
2019-02-15T19:30:28.242Z,102532.27
2019-02-15T19:32:57.570Z,102540.02
2019-02-15T19:35:27.424Z,102535.69
2019-02-15T19:37:56.766Z,102534.84
2019-02-15T19:40:26.130Z,102530.99
2019-02-15T19:42:59.115Z,102532.69
2019-02-15T19:45:28.493Z,102528.83
2019-02-15T19:47:58.436Z,102529.70
2019-02-15T19:50:27.885Z,102527.12
2019-02-15T19:52:57.230Z,102530.55
2019-02-15T19:55:26.601Z,102535.28
2019-02-15T19:57:56.116Z,102528.83
2019-02-15T20:00:25.496Z,102531.42
2019-02-15T20:02:54.838Z,102542.19
2019-02-15T20:05:24.359Z,102536.16
2019-02-15T20:07:53.703Z,102540.02
2019-02-15T20:10:23.954Z,102534.41
2019-02-15T20:12:53.295Z,102538.29
2019-02-15T20:15:22.667Z,102538.23
2019-02-15T20:17:52.006Z,102530.91
2019-02-15T20:20:21.386Z,102535.61
2019-02-15T20:22:50.724Z,102535.63
2019-02-15T20:25:22.418Z,102536.52
2019-02-15T20:27:51.755Z,102530.50
2019-02-15T20:30:24.111Z,102527.93
2019-02-15T20:32:53.450Z,102528.34
2019-02-15T20:35:22.828Z,102531.33
2019-02-15T20:37:52.608Z,102530.91
2019-02-15T20:40:22.616Z,102537.33
2019-02-15T20:42:52.612Z,102532.19
2019-02-15T20:45:23.573Z,102533.88
2019-02-15T20:47:53.155Z,102530.44
2019-02-15T20:50:22.466Z,102527.88
2019-02-15T20:52:51.841Z,102521.03
2019-02-15T20:55:21.187Z,102524.02
2019-02-15T20:57:52.631Z,102530.42
2019-02-15T21:00:24.824Z,102525.70
2019-02-15T21:02:54.665Z,102515.80
2019-02-15T21:05:24.045Z,102516.65
2019-02-15T21:07:53.879Z,102515.34
2019-02-15T21:10:23.399Z,102521.37
2019-02-15T21:12:52.764Z,102513.64
2019-02-15T21:15:24.186Z,102513.16
2019-02-15T21:17:53.180Z,102513.95
2019-02-15T21:20:24.618Z,102507.53
2019-02-15T21:22:54.629Z,102511.00
2019-02-15T21:25:24.023Z,102513.98
2019-02-15T21:27:55.694Z,102513.14
2019-02-15T21:30:25.043Z,102515.23
2019-02-15T21:32:54.682Z,102511.34
2019-02-15T21:35:23.983Z,102517.41
2019-02-15T21:37:53.824Z,102522.94
2019-02-15T21:40:23.387Z,102521.19
2019-02-15T21:42:52.745Z,102522.84
2019-02-15T21:45:22.080Z,102516.39
2019-02-15T21:47:51.454Z,102521.56
2019-02-15T21:50:20.795Z,102519.89
2019-02-15T21:52:50.151Z,102516.94
2019-02-15T21:55:19.481Z,102510.92
2019-02-15T21:57:48.842Z,102513.05
2019-02-15T22:00:23.152Z,102517.77
2019-02-15T22:02:52.611Z,102515.59
2019-02-15T22:05:21.953Z,102511.26
2019-02-15T22:07:51.313Z,102505.17
2019-02-15T22:10:20.645Z,102511.21
2019-02-15T22:12:50.005Z,102503.52
2019-02-15T22:15:19.341Z,102499.19
2019-02-15T22:17:48.697Z,102498.34
2019-02-15T22:20:26.336Z,102494.89
2019-02-15T22:22:49.257Z,102497.08
2019-02-15T22:25:18.657Z,102497.51
2019-02-15T22:27:48.287Z,102497.92
2019-02-15T22:30:18.664Z,102500.05
2019-02-15T22:32:48.218Z,102496.59
2019-02-15T22:35:17.542Z,102501.80
2019-02-15T22:37:46.912Z,102497.51
2019-02-15T22:40:36.091Z,102496.64
2019-02-15T22:43:11.067Z,102484.19
2019-02-15T22:45:40.400Z,102483.78
2019-02-15T22:48:09.789Z,102482.45
2019-02-15T22:50:39.202Z,102485.39
2019-02-15T22:53:08.836Z,102486.68
2019-02-15T22:55:38.304Z,102483.23
2019-02-15T22:58:07.689Z,102480.66
2019-02-15T23:00:55.859Z,102480.71
2019-02-15T23:03:26.811Z,102477.80
2019-02-15T23:05:56.264Z,102484.63
2019-02-15T23:08:25.748Z,102483.78
2019-02-15T23:10:55.160Z,102482.06
2019-02-15T23:13:24.525Z,102478.61
2019-02-15T23:15:53.863Z,102483.30
2019-02-15T23:18:23.874Z,102478.12
2019-02-15T23:20:53.206Z,102481.14
2019-02-15T23:23:22.624Z,102488.42
2019-02-15T23:25:51.975Z,102479.80
2019-02-15T23:28:21.385Z,102484.95
2019-02-15T23:30:50.719Z,102477.28
2019-02-15T23:33:20.175Z,102477.73
2019-02-15T23:35:49.563Z,102482.08
2019-02-15T23:38:18.942Z,102476.94
2019-02-15T23:40:48.306Z,102474.73
2019-02-15T23:43:17.708Z,102476.00
2019-02-15T23:45:47.120Z,102466.52
2019-02-15T23:48:16.506Z,102467.39
2019-02-15T23:50:54.256Z,102468.75
2019-02-15T23:53:16.961Z,102468.40
2019-02-15T23:55:46.321Z,102462.38
2019-02-15T23:58:15.657Z,102458.89
